sensor_id;sensor_type;location;lat;lon;timestamp;pressure;altitude;pressure_sealevel;temperature;humidity
29815;BME280;16708;50.426;7.664;2023-06-14T00:02:39;984.34;;;18.27;48.86
29815;BME280;16708;50.426;7.664;2023-06-14T00:07:32;984.34;;;18.46;47.87
29815;BME280;16708;50.426;7.664;2023-06-14T00:12:26;984.35;;;18.60;46.96
29815;BME280;16708;50.426;7.664;2023-06-14T00:17:20;984.29;;;18.53;47.37
29815;BME280;16708;50.426;7.664;2023-06-14T00:22:14;984.28;;;18.67;46.01
29815;BME280;16708;50.426;7.664;2023-06-14T00:27:07;984.27;;;18.68;45.54
29815;BME280;16708;50.426;7.664;2023-06-14T00:32:00;984.30;;;18.57;45.90
29815;BME280;16708;50.426;7.664;2023-06-14T00:36:54;984.24;;;18.50;46.59
29815;BME280;16708;50.426;7.664;2023-06-14T00:41:48;984.31;;;18.45;46.10
29815;BME280;16708;50.426;7.664;2023-06-14T00:46:42;984.31;;;18.45;45.68
29815;BME280;16708;50.426;7.664;2023-06-14T00:51:35;984.27;;;18.34;46.16
29815;BME280;16708;50.426;7.664;2023-06-14T00:56:29;984.31;;;18.30;46.14
29815;BME280;16708;50.426;7.664;2023-06-14T01:01:23;984.34;;;18.21;46.38
29815;BME280;16708;50.426;7.664;2023-06-14T01:06:17;984.29;;;18.20;46.33
29815;BME280;16708;50.426;7.664;2023-06-14T01:11:11;984.33;;;18.12;46.70
29815;BME280;16708;50.426;7.664;2023-06-14T01:16:06;984.33;;;18.04;46.84
29815;BME280;16708;50.426;7.664;2023-06-14T01:21:00;984.36;;;18.03;46.17
29815;BME280;16708;50.426;7.664;2023-06-14T01:25:54;984.40;;;17.98;46.29
29815;BME280;16708;50.426;7.664;2023-06-14T01:30:48;984.41;;;17.90;46.10
29815;BME280;16708;50.426;7.664;2023-06-14T01:35:42;984.40;;;17.92;46.19
29815;BME280;16708;50.426;7.664;2023-06-14T01:40:36;984.41;;;17.84;46.23
29815;BME280;16708;50.426;7.664;2023-06-14T01:45:31;984.42;;;17.80;47.05
29815;BME280;16708;50.426;7.664;2023-06-14T01:50:25;984.37;;;17.79;46.41
29815;BME280;16708;50.426;7.664;2023-06-14T01:55:19;984.43;;;17.70;46.90
29815;BME280;16708;50.426;7.664;2023-06-14T02:00:13;984.39;;;17.69;46.68
29815;BME280;16708;50.426;7.664;2023-06-14T02:05:06;984.38;;;17.58;47.05
29815;BME280;16708;50.426;7.664;2023-06-14T02:10:00;984.41;;;17.54;47.44
29815;BME280;16708;50.426;7.664;2023-06-14T02:14:54;984.35;;;17.41;47.36
29815;BME280;16708;50.426;7.664;2023-06-14T02:19:49;984.48;;;17.42;47.46
29815;BME280;16708;50.426;7.664;2023-06-14T02:24:40;984.45;;;17.42;47.48
29815;BME280;16708;50.426;7.664;2023-06-14T02:29:34;984.54;;;17.29;48.06
29815;BME280;16708;50.426;7.664;2023-06-14T02:34:26;984.55;;;17.17;48.71
29815;BME280;16708;50.426;7.664;2023-06-14T02:39:20;984.54;;;17.10;49.86
29815;BME280;16708;50.426;7.664;2023-06-14T02:44:14;984.54;;;17.01;50.70
29815;BME280;16708;50.426;7.664;2023-06-14T02:49:05;984.51;;;16.89;51.41
29815;BME280;16708;50.426;7.664;2023-06-14T02:53:58;984.53;;;16.89;51.90
29815;BME280;16708;50.426;7.664;2023-06-14T02:58:53;984.55;;;16.74;53.50
29815;BME280;16708;50.426;7.664;2023-06-14T03:03:47;984.56;;;16.70;53.79
29815;BME280;16708;50.426;7.664;2023-06-14T03:08:38;984.56;;;16.67;54.13
29815;BME280;16708;50.426;7.664;2023-06-14T03:13:32;984.61;;;16.56;55.22
29815;BME280;16708;50.426;7.664;2023-06-14T03:18:26;984.67;;;16.68;54.94
29815;BME280;16708;50.426;7.664;2023-06-14T03:23:20;984.73;;;16.66;55.39
29815;BME280;16708;50.426;7.664;2023-06-14T03:28:14;984.82;;;16.56;56.07
29815;BME280;16708;50.426;7.664;2023-06-14T03:33:08;984.85;;;16.68;57.54
29815;BME280;16708;50.426;7.664;2023-06-14T03:38:02;984.98;;;16.49;58.71
29815;BME280;16708;50.426;7.664;2023-06-14T03:42:55;984.97;;;16.18;60.70
29815;BME280;16708;50.426;7.664;2023-06-14T03:47:48;985.07;;;16.19;61.80
29815;BME280;16708;50.426;7.664;2023-06-14T03:52:42;985.21;;;15.82;65.42
29815;BME280;16708;50.426;7.664;2023-06-14T03:57:39;985.21;;;15.74;67.08
29815;BME280;16708;50.426;7.664;2023-06-14T04:02:29;985.27;;;15.55;68.87
29815;BME280;16708;50.426;7.664;2023-06-14T04:07:23;985.30;;;15.60;72.04
29815;BME280;16708;50.426;7.664;2023-06-14T04:12:18;985.30;;;16.05;67.70
29815;BME280;16708;50.426;7.664;2023-06-14T04:17:12;985.30;;;16.28;66.70
29815;BME280;16708;50.426;7.664;2023-06-14T04:22:06;985.28;;;16.57;62.59
29815;BME280;16708;50.426;7.664;2023-06-14T04:27:00;985.36;;;16.73;61.47
29815;BME280;16708;50.426;7.664;2023-06-14T04:31:54;985.37;;;16.77;61.03
29815;BME280;16708;50.426;7.664;2023-06-14T04:36:48;985.39;;;16.80;62.56
29815;BME280;16708;50.426;7.664;2023-06-14T04:41:41;985.36;;;16.85;61.10
29815;BME280;16708;50.426;7.664;2023-06-14T04:46:35;985.47;;;16.80;61.04
29815;BME280;16708;50.426;7.664;2023-06-14T04:51:29;985.47;;;17.01;60.61
29815;BME280;16708;50.426;7.664;2023-06-14T04:56:23;985.50;;;17.01;61.22
29815;BME280;16708;50.426;7.664;2023-06-14T05:01:17;985.46;;;17.02;60.80
29815;BME280;16708;50.426;7.664;2023-06-14T05:06:11;985.63;;;17.19;64.33
29815;BME280;16708;50.426;7.664;2023-06-14T05:11:06;985.47;;;17.24;61.11
29815;BME280;16708;50.426;7.664;2023-06-14T05:16:00;985.47;;;17.14;60.31
29815;BME280;16708;50.426;7.664;2023-06-14T05:20:54;985.67;;;17.26;62.21
29815;BME280;16708;50.426;7.664;2023-06-14T05:25:48;985.62;;;17.48;61.55
29815;BME280;16708;50.426;7.664;2023-06-14T05:30:41;985.65;;;17.52;62.71
29815;BME280;16708;50.426;7.664;2023-06-14T05:35:35;985.74;;;17.68;60.49
29815;BME280;16708;50.426;7.664;2023-06-14T05:40:30;985.73;;;17.91;59.06
29815;BME280;16708;50.426;7.664;2023-06-14T05:45:23;985.67;;;18.05;58.84
29815;BME280;16708;50.426;7.664;2023-06-14T05:50:17;985.83;;;18.20;58.49
29815;BME280;16708;50.426;7.664;2023-06-14T05:55:11;985.84;;;18.12;58.18
29815;BME280;16708;50.426;7.664;2023-06-14T06:00:05;985.83;;;18.18;57.80
29815;BME280;16708;50.426;7.664;2023-06-14T06:04:59;985.87;;;18.30;57.57
29815;BME280;16708;50.426;7.664;2023-06-14T06:09:54;985.96;;;18.26;57.50
29815;BME280;16708;50.426;7.664;2023-06-14T06:14:48;985.99;;;18.21;57.96
29815;BME280;16708;50.426;7.664;2023-06-14T06:19:42;986.05;;;18.25;59.74
29815;BME280;16708;50.426;7.664;2023-06-14T06:24:35;986.14;;;18.43;57.48
29815;BME280;16708;50.426;7.664;2023-06-14T06:29:30;986.07;;;18.56;60.22
29815;BME280;16708;50.426;7.664;2023-06-14T06:34:24;986.17;;;18.65;60.63
29815;BME280;16708;50.426;7.664;2023-06-14T06:39:18;986.24;;;18.82;59.21
29815;BME280;16708;50.426;7.664;2023-06-14T06:44:13;986.28;;;18.84;57.34
29815;BME280;16708;50.426;7.664;2023-06-14T06:49:07;986.31;;;18.90;58.79
29815;BME280;16708;50.426;7.664;2023-06-14T06:54:01;986.39;;;18.89;57.37
29815;BME280;16708;50.426;7.664;2023-06-14T06:58:56;986.36;;;18.91;57.24
29815;BME280;16708;50.426;7.664;2023-06-14T07:03:50;986.50;;;19.24;57.85
29815;BME280;16708;50.426;7.664;2023-06-14T07:08:44;986.49;;;19.29;56.26
29815;BME280;16708;50.426;7.664;2023-06-14T07:13:38;986.61;;;19.14;56.44
29815;BME280;16708;50.426;7.664;2023-06-14T07:18:32;986.63;;;19.22;56.53
29815;BME280;16708;50.426;7.664;2023-06-14T07:23:26;986.64;;;19.17;52.19
29815;BME280;16708;50.426;7.664;2023-06-14T07:28:21;986.77;;;19.43;54.45
29815;BME280;16708;50.426;7.664;2023-06-14T07:33:14;986.74;;;19.58;54.48
29815;BME280;16708;50.426;7.664;2023-06-14T07:38:09;986.71;;;19.65;52.40
29815;BME280;16708;50.426;7.664;2023-06-14T07:43:03;986.67;;;19.78;53.96
29815;BME280;16708;50.426;7.664;2023-06-14T07:47:57;986.70;;;20.04;53.40
29815;BME280;16708;50.426;7.664;2023-06-14T07:52:52;986.77;;;20.00;51.66
29815;BME280;16708;50.426;7.664;2023-06-14T07:57:46;986.75;;;20.10;50.45
29815;BME280;16708;50.426;7.664;2023-06-14T08:02:39;986.78;;;20.12;50.87
29815;BME280;16708;50.426;7.664;2023-06-14T08:07:33;986.76;;;20.22;48.83
29815;BME280;16708;50.426;7.664;2023-06-14T08:12:26;986.77;;;20.68;49.05
29815;BME280;16708;50.426;7.664;2023-06-14T08:17:21;986.73;;;20.90;46.66
29815;BME280;16708;50.426;7.664;2023-06-14T08:22:15;986.72;;;21.11;47.58
29815;BME280;16708;50.426;7.664;2023-06-14T08:27:10;986.63;;;20.55;44.87
29815;BME280;16708;50.426;7.664;2023-06-14T08:32:04;986.72;;;20.86;46.34
29815;BME280;16708;50.426;7.664;2023-06-14T08:36:58;986.80;;;21.27;45.62
29815;BME280;16708;50.426;7.664;2023-06-14T08:41:52;986.74;;;21.55;45.15
29815;BME280;16708;50.426;7.664;2023-06-14T08:46:47;986.69;;;21.07;45.27
29815;BME280;16708;50.426;7.664;2023-06-14T08:51:40;986.72;;;21.28;45.17
29815;BME280;16708;50.426;7.664;2023-06-14T08:56:34;986.62;;;21.78;45.32
29815;BME280;16708;50.426;7.664;2023-06-14T09:01:28;986.68;;;21.65;43.47
29815;BME280;16708;50.426;7.664;2023-06-14T09:06:23;986.64;;;21.75;44.85
29815;BME280;16708;50.426;7.664;2023-06-14T09:11:17;986.61;;;22.05;45.71
29815;BME280;16708;50.426;7.664;2023-06-14T09:16:11;986.73;;;22.30;42.60
29815;BME280;16708;50.426;7.664;2023-06-14T09:21:06;986.80;;;22.27;43.57
29815;BME280;16708;50.426;7.664;2023-06-14T09:26:00;986.88;;;22.68;43.30
29815;BME280;16708;50.426;7.664;2023-06-14T09:30:55;986.84;;;22.81;40.57
29815;BME280;16708;50.426;7.664;2023-06-14T09:35:50;986.89;;;22.98;41.31
29815;BME280;16708;50.426;7.664;2023-06-14T09:40:44;986.95;;;23.26;39.36
29815;BME280;16708;50.426;7.664;2023-06-14T09:45:38;987.01;;;23.60;39.13
29815;BME280;16708;50.426;7.664;2023-06-14T09:50:32;986.93;;;23.42;38.03
29815;BME280;16708;50.426;7.664;2023-06-14T10:00:21;986.98;;;25.28;35.47
29815;BME280;16708;50.426;7.664;2023-06-14T10:05:16;987.02;;;25.45;33.56
29815;BME280;16708;50.426;7.664;2023-06-14T10:10:12;987.04;;;27.06;32.26
29815;BME280;16708;50.426;7.664;2023-06-14T10:20:04;986.95;;;26.84;31.60
29815;BME280;16708;50.426;7.664;2023-06-14T10:24:57;987.12;;;26.43;32.56
29815;BME280;16708;50.426;7.664;2023-06-14T10:29:52;987.07;;;26.88;30.54
29815;BME280;16708;50.426;7.664;2023-06-14T10:34:46;986.92;;;27.15;29.41
29815;BME280;16708;50.426;7.664;2023-06-14T10:39:41;987.02;;;27.49;29.04
29815;BME280;16708;50.426;7.664;2023-06-14T10:44:35;987.09;;;26.81;30.56
29815;BME280;16708;50.426;7.664;2023-06-14T10:49:30;987.10;;;27.43;30.83
29815;BME280;16708;50.426;7.664;2023-06-14T10:54:25;987.11;;;27.92;29.90
29815;BME280;16708;50.426;7.664;2023-06-14T10:59:20;987.19;;;27.20;30.91
29815;BME280;16708;50.426;7.664;2023-06-14T11:04:14;987.11;;;27.89;29.74
29815;BME280;16708;50.426;7.664;2023-06-14T11:14:04;987.25;;;28.26;28.77
29815;BME280;16708;50.426;7.664;2023-06-14T11:23:53;987.28;;;27.92;28.82
29815;BME280;16708;50.426;7.664;2023-06-14T11:28:48;987.30;;;28.06;29.30
29815;BME280;16708;50.426;7.664;2023-06-14T11:33:42;987.33;;;28.72;28.20
29815;BME280;16708;50.426;7.664;2023-06-14T11:38:37;987.29;;;28.34;28.52
29815;BME280;16708;50.426;7.664;2023-06-14T11:43:31;987.28;;;28.56;28.05
29815;BME280;16708;50.426;7.664;2023-06-14T11:48:26;987.21;;;28.85;27.49
29815;BME280;16708;50.426;7.664;2023-06-14T11:53:21;987.32;;;28.20;28.19
29815;BME280;16708;50.426;7.664;2023-06-14T11:58:15;987.21;;;28.95;26.92
29815;BME280;16708;50.426;7.664;2023-06-14T12:03:10;987.33;;;28.18;29.28
29815;BME280;16708;50.426;7.664;2023-06-14T12:08:03;987.21;;;28.58;28.39
29815;BME280;16708;50.426;7.664;2023-06-14T12:12:56;987.26;;;28.34;27.96
29815;BME280;16708;50.426;7.664;2023-06-14T12:22:42;987.17;;;29.47;26.53
29815;BME280;16708;50.426;7.664;2023-06-14T12:27:37;987.20;;;28.10;27.78
29815;BME280;16708;50.426;7.664;2023-06-14T12:32:31;987.15;;;29.06;27.24
29815;BME280;16708;50.426;7.664;2023-06-14T12:37:25;987.25;;;27.47;30.24
29815;BME280;16708;50.426;7.664;2023-06-14T12:42:19;987.16;;;29.40;26.61
29815;BME280;16708;50.426;7.664;2023-06-14T12:47:13;987.32;;;28.11;28.93
29815;BME280;16708;50.426;7.664;2023-06-14T12:52:06;987.22;;;28.87;27.18
29815;BME280;16708;50.426;7.664;2023-06-14T12:57:01;987.26;;;26.56;29.88
29815;BME280;16708;50.426;7.664;2023-06-14T13:01:55;987.22;;;29.73;26.05
29815;BME280;16708;50.426;7.664;2023-06-14T13:06:50;987.23;;;30.84;25.16
29815;BME280;16708;50.426;7.664;2023-06-14T13:11:43;987.38;;;29.73;25.62
29815;BME280;16708;50.426;7.664;2023-06-14T13:16:38;987.43;;;29.22;26.16
29815;BME280;16708;50.426;7.664;2023-06-14T13:21:33;987.34;;;28.88;25.87
29815;BME280;16708;50.426;7.664;2023-06-14T13:26:27;987.24;;;28.65;27.21
29815;BME280;16708;50.426;7.664;2023-06-14T13:31:21;987.34;;;28.56;28.07
29815;BME280;16708;50.426;7.664;2023-06-14T13:36:16;987.32;;;27.89;28.14
29815;BME280;16708;50.426;7.664;2023-06-14T13:41:09;987.30;;;29.65;24.96
29815;BME280;16708;50.426;7.664;2023-06-14T13:46:05;987.47;;;32.28;22.39
29815;BME280;16708;50.426;7.664;2023-06-14T13:51:02;987.24;;;29.96;24.74
29815;BME280;16708;50.426;7.664;2023-06-14T13:55:56;987.16;;;28.01;27.48
29815;BME280;16708;50.426;7.664;2023-06-14T14:00:49;987.27;;;25.38;31.26
29815;BME280;16708;50.426;7.664;2023-06-14T14:05:41;987.32;;;30.62;24.66
29815;BME280;16708;50.426;7.664;2023-06-14T14:10:37;987.23;;;30.90;24.20
29815;BME280;16708;50.426;7.664;2023-06-14T14:15:32;987.24;;;32.28;22.17
29815;BME280;16708;50.426;7.664;2023-06-14T14:20:27;987.17;;;30.77;24.51
29815;BME280;16708;50.426;7.664;2023-06-14T14:25:21;987.16;;;27.99;27.88
29815;BME280;16708;50.426;7.664;2023-06-14T14:30:14;987.18;;;29.92;25.72
29815;BME280;16708;50.426;7.664;2023-06-14T14:35:09;987.19;;;30.76;24.54
29815;BME280;16708;50.426;7.664;2023-06-14T14:40:04;987.25;;;31.70;23.37
29815;BME280;16708;50.426;7.664;2023-06-14T14:44:59;987.19;;;32.81;21.73
29815;BME280;16708;50.426;7.664;2023-06-14T14:49:55;987.18;;;32.32;23.00
29815;BME280;16708;50.426;7.664;2023-06-14T14:54:50;987.16;;;32.18;22.06
29815;BME280;16708;50.426;7.664;2023-06-14T14:59:44;987.12;;;31.37;22.61
29815;BME280;16708;50.426;7.664;2023-06-14T15:04:38;987.18;;;31.83;22.85
29815;BME280;16708;50.426;7.664;2023-06-14T15:09:33;987.19;;;32.58;21.87
29815;BME280;16708;50.426;7.664;2023-06-14T15:14:27;987.18;;;30.89;22.97
29815;BME280;16708;50.426;7.664;2023-06-14T15:19:21;987.22;;;31.58;22.53
29815;BME280;16708;50.426;7.664;2023-06-14T15:24:16;987.19;;;32.43;22.48
29815;BME280;16708;50.426;7.664;2023-06-14T15:29:10;987.21;;;31.14;22.33
29815;BME280;16708;50.426;7.664;2023-06-14T15:34:05;987.27;;;28.85;25.42
29815;BME280;16708;50.426;7.664;2023-06-14T15:38:58;987.20;;;30.43;23.55
29815;BME280;16708;50.426;7.664;2023-06-14T15:43:53;987.24;;;30.58;23.19
29815;BME280;16708;50.426;7.664;2023-06-14T15:48:45;987.28;;;31.50;22.63
29815;BME280;16708;50.426;7.664;2023-06-14T15:53:39;987.11;;;27.60;28.14
29815;BME280;16708;50.426;7.664;2023-06-14T15:58:32;987.09;;;26.98;27.68
29815;BME280;16708;50.426;7.664;2023-06-14T16:03:26;987.10;;;29.96;24.85
29815;BME280;16708;50.426;7.664;2023-06-14T16:08:20;987.01;;;26.76;28.89
29815;BME280;16708;50.426;7.664;2023-06-14T16:13:13;986.93;;;25.04;31.21
29815;BME280;16708;50.426;7.664;2023-06-14T16:18:05;986.99;;;24.45;32.16
29815;BME280;16708;50.426;7.664;2023-06-14T16:22:59;987.08;;;27.99;27.44
29815;BME280;16708;50.426;7.664;2023-06-14T16:27:54;987.06;;;29.95;25.18
29815;BME280;16708;50.426;7.664;2023-06-14T16:32:49;987.01;;;30.43;23.71
29815;BME280;16708;50.426;7.664;2023-06-14T16:37:45;987.04;;;29.34;24.33
29815;BME280;16708;50.426;7.664;2023-06-14T16:42:39;987.06;;;29.43;24.95
29815;BME280;16708;50.426;7.664;2023-06-14T16:47:34;987.07;;;30.48;24.09
29815;BME280;16708;50.426;7.664;2023-06-14T16:52:29;987.10;;;30.14;24.10
29815;BME280;16708;50.426;7.664;2023-06-14T16:57:23;987.09;;;26.10;29.92
29815;BME280;16708;50.426;7.664;2023-06-14T17:02:15;987.10;;;24.58;31.19
29815;BME280;16708;50.426;7.664;2023-06-14T17:07:08;987.12;;;23.79;33.39
29815;BME280;16708;50.426;7.664;2023-06-14T17:12:02;987.13;;;23.54;33.54
29815;BME280;16708;50.426;7.664;2023-06-14T17:16:55;987.21;;;26.88;28.78
29815;BME280;16708;50.426;7.664;2023-06-14T17:21:50;987.19;;;27.76;27.32
29815;BME280;16708;50.426;7.664;2023-06-14T17:26:45;987.31;;;29.36;25.60
29815;BME280;16708;50.426;7.664;2023-06-14T17:31:40;987.29;;;28.55;26.76
29815;BME280;16708;50.426;7.664;2023-06-14T17:36:35;987.25;;;28.78;25.36
29815;BME280;16708;50.426;7.664;2023-06-14T17:41:30;987.38;;;29.38;25.20
29815;BME280;16708;50.426;7.664;2023-06-14T17:46:24;987.39;;;29.48;26.16
29815;BME280;16708;50.426;7.664;2023-06-14T17:51:18;987.36;;;28.91;25.47
29815;BME280;16708;50.426;7.664;2023-06-14T17:56:12;987.40;;;27.78;27.23
29815;BME280;16708;50.426;7.664;2023-06-14T18:01:06;987.46;;;26.35;28.84
29815;BME280;16708;50.426;7.664;2023-06-14T18:05:59;987.45;;;24.19;31.39
29815;BME280;16708;50.426;7.664;2023-06-14T18:10:53;987.43;;;24.47;32.23
29815;BME280;16708;50.426;7.664;2023-06-14T18:15:46;987.47;;;26.53;29.56
29815;BME280;16708;50.426;7.664;2023-06-14T18:20:41;987.53;;;26.61;28.97
29815;BME280;16708;50.426;7.664;2023-06-14T18:25:35;987.58;;;26.67;29.50
29815;BME280;16708;50.426;7.664;2023-06-14T18:30:29;987.57;;;25.63;30.62
29815;BME280;16708;50.426;7.664;2023-06-14T18:35:23;987.63;;;23.27;34.97
29815;BME280;16708;50.426;7.664;2023-06-14T18:40:17;987.65;;;24.17;33.42
29815;BME280;16708;50.426;7.664;2023-06-14T18:45:12;987.73;;;24.33;33.16
29815;BME280;16708;50.426;7.664;2023-06-14T18:50:05;987.70;;;24.43;33.02
29815;BME280;16708;50.426;7.664;2023-06-14T18:54:59;987.69;;;24.59;33.18
29815;BME280;16708;50.426;7.664;2023-06-14T18:59:53;987.75;;;22.40;36.66
29815;BME280;16708;50.426;7.664;2023-06-14T19:04:47;987.69;;;21.86;37.60
29815;BME280;16708;50.426;7.664;2023-06-14T19:09:41;987.69;;;21.33;39.76
29815;BME280;16708;50.426;7.664;2023-06-14T19:14:34;987.71;;;21.17;39.99
29815;BME280;16708;50.426;7.664;2023-06-14T19:19:28;987.71;;;20.87;42.01
29815;BME280;16708;50.426;7.664;2023-06-14T19:24:22;987.74;;;20.56;43.63
29815;BME280;16708;50.426;7.664;2023-06-14T19:29:17;987.76;;;20.39;43.71
29815;BME280;16708;50.426;7.664;2023-06-14T19:34:11;987.74;;;20.23;44.87
29815;BME280;16708;50.426;7.664;2023-06-14T19:39:05;987.90;;;19.99;46.14
29815;BME280;16708;50.426;7.664;2023-06-14T19:43:57;987.97;;;19.84;46.69
29815;BME280;16708;50.426;7.664;2023-06-14T19:48:52;988.00;;;19.67;48.45
29815;BME280;16708;50.426;7.664;2023-06-14T19:53:46;988.12;;;19.42;51.09
29815;BME280;16708;50.426;7.664;2023-06-14T19:58:41;988.16;;;19.15;51.54
29815;BME280;16708;50.426;7.664;2023-06-14T20:03:35;988.20;;;19.03;52.37
29815;BME280;16708;50.426;7.664;2023-06-14T20:08:30;988.34;;;18.88;52.85
29815;BME280;16708;50.426;7.664;2023-06-14T20:13:24;988.36;;;18.72;53.71
29815;BME280;16708;50.426;7.664;2023-06-14T20:18:18;988.34;;;18.63;54.26
29815;BME280;16708;50.426;7.664;2023-06-14T20:23:12;988.44;;;18.48;55.79
29815;BME280;16708;50.426;7.664;2023-06-14T20:28:06;988.45;;;18.33;57.28
29815;BME280;16708;50.426;7.664;2023-06-14T20:33:01;988.43;;;18.20;58.48
29815;BME280;16708;50.426;7.664;2023-06-14T20:37:55;988.41;;;18.12;59.73
29815;BME280;16708;50.426;7.664;2023-06-14T20:42:49;988.42;;;18.08;60.70
29815;BME280;16708;50.426;7.664;2023-06-14T20:47:44;988.35;;;17.90;62.57
29815;BME280;16708;50.426;7.664;2023-06-14T20:52:37;988.31;;;17.92;62.79
29815;BME280;16708;50.426;7.664;2023-06-14T20:57:29;988.39;;;17.79;64.84
29815;BME280;16708;50.426;7.664;2023-06-14T21:02:23;988.40;;;17.67;66.06
29815;BME280;16708;50.426;7.664;2023-06-14T21:07:16;988.43;;;17.54;67.58
29815;BME280;16708;50.426;7.664;2023-06-14T21:12:10;988.39;;;17.57;67.73
29815;BME280;16708;50.426;7.664;2023-06-14T21:17:04;988.46;;;17.56;69.75
29815;BME280;16708;50.426;7.664;2023-06-14T21:21:58;988.45;;;17.41;69.75
29815;BME280;16708;50.426;7.664;2023-06-14T21:26:52;988.49;;;17.36;71.75
29815;BME280;16708;50.426;7.664;2023-06-14T21:31:44;988.36;;;17.23;82.48
29815;BME280;16708;50.426;7.664;2023-06-14T21:36:36;988.40;;;17.04;79.93
29815;BME280;16708;50.426;7.664;2023-06-14T21:41:30;988.43;;;16.92;83.25
29815;BME280;16708;50.426;7.664;2023-06-14T21:46:22;988.40;;;16.85;80.67
29815;BME280;16708;50.426;7.664;2023-06-14T21:51:16;988.43;;;16.88;82.13
29815;BME280;16708;50.426;7.664;2023-06-14T21:56:11;988.44;;;16.91;80.32
29815;BME280;16708;50.426;7.664;2023-06-14T22:01:05;988.39;;;16.92;80.61
29815;BME280;16708;50.426;7.664;2023-06-14T22:05:59;988.50;;;16.83;81.31
29815;BME280;16708;50.426;7.664;2023-06-14T22:10:53;988.45;;;16.85;80.22
29815;BME280;16708;50.426;7.664;2023-06-14T22:15:47;988.54;;;16.83;81.04
29815;BME280;16708;50.426;7.664;2023-06-14T22:20:41;988.56;;;16.78;81.98
29815;BME280;16708;50.426;7.664;2023-06-14T22:25:35;988.49;;;16.77;83.94
29815;BME280;16708;50.426;7.664;2023-06-14T22:30:29;988.45;;;16.56;85.77
29815;BME280;16708;50.426;7.664;2023-06-14T22:35:23;988.59;;;16.45;85.75
29815;BME280;16708;50.426;7.664;2023-06-14T22:40:17;988.61;;;16.41;87.77
29815;BME280;16708;50.426;7.664;2023-06-14T22:45:11;988.56;;;16.42;88.93
29815;BME280;16708;50.426;7.664;2023-06-14T22:50:05;988.56;;;16.21;91.58
29815;BME280;16708;50.426;7.664;2023-06-14T22:54:59;988.53;;;16.25;90.60
29815;BME280;16708;50.426;7.664;2023-06-14T22:59:54;988.55;;;16.25;90.87
29815;BME280;16708;50.426;7.664;2023-06-14T23:04:48;988.56;;;16.37;90.60
29815;BME280;16708;50.426;7.664;2023-06-14T23:09:39;988.65;;;16.35;90.93
29815;BME280;16708;50.426;7.664;2023-06-14T23:14:33;988.65;;;16.26;92.52
29815;BME280;16708;50.426;7.664;2023-06-14T23:19:27;988.52;;;15.96;96.02
29815;BME280;16708;50.426;7.664;2023-06-14T23:24:21;988.55;;;15.90;98.59
29815;BME280;16708;50.426;7.664;2023-06-14T23:29:16;988.49;;;15.82;100.00
29815;BME280;16708;50.426;7.664;2023-06-14T23:34:10;988.47;;;15.66;100.00
29815;BME280;16708;50.426;7.664;2023-06-14T23:39:04;988.39;;;15.28;100.00
29815;BME280;16708;50.426;7.664;2023-06-14T23:43:58;988.53;;;14.72;100.00
29815;BME280;16708;50.426;7.664;2023-06-14T23:48:52;988.54;;;14.65;100.00
29815;BME280;16708;50.426;7.664;2023-06-14T23:53:46;988.55;;;14.49;100.00
29815;BME280;16708;50.426;7.664;2023-06-14T23:58:41;988.57;;;14.52;100.00
